Time;durP1;ratioP1;P1;durP2;ratioP2;P2;SDS_P1;SDS_P2;PMS_P1;PMS_P2;Temp;Humidity;BMP_temperature;BMP_pressure;BME280_temperature;BME280_humidity;BME280_pressure;Samples;Min_cycle;Max_cycle;Signal;HPM_P1;HPM_P2
2022/07/02 00:02:23;;;;;;;6.85;1.20;;;;;;;15.99;100.00;100821.06;6125319;23;20002;-84
2022/07/02 00:04:57;;;;;;;7.43;2.03;;;;;;;16.07;100.00;100812.47;6125894;23;20061;-84
2022/07/02 00:07:23;;;;;;;4.10;1.58;;;;;;;16.03;100.00;100809.28;6125465;23;20010;-84
2022/07/02 00:09:49;;;;;;;11.80;3.08;;;;;;;15.91;100.00;100807.63;6125168;23;20029;-84
2022/07/02 00:12:14;;;;;;;6.03;1.30;;;;;;;15.94;100.00;100820.63;6125236;23;20425;-84
2022/07/02 00:14:41;;;;;;;3.15;1.10;;;;;;;15.86;100.00;100810.69;6125291;23;20040;-84
2022/07/02 00:17:06;;;;;;;2.53;1.00;;;;;;;15.81;100.00;100812.03;6125518;23;20002;-84
2022/07/02 00:19:32;;;;;;;7.20;1.35;;;;;;;15.75;100.00;100817.84;6125542;23;20009;-84
2022/07/02 00:21:58;;;;;;;4.93;1.15;;;;;;;15.74;100.00;100817.00;6125365;23;20005;-84
2022/07/02 00:24:24;;;;;;;1.73;0.57;;;;;;;15.69;100.00;100813.88;6125217;23;20006;-83
2022/07/02 00:26:57;;;;;;;4.50;1.20;;;;;;;15.64;100.00;100798.38;6125090;23;19997;-83
2022/07/02 00:29:44;;;;;;;7.07;2.22;;;;;;;15.58;100.00;100796.25;6125361;23;20012;-84
2022/07/02 00:32:10;;;;;;;5.28;1.10;;;;;;;15.52;100.00;100796.75;6124933;23;20009;-83
2022/07/02 00:34:39;;;;;;;2.53;1.00;;;;;;;15.41;100.00;100792.31;6125435;23;19998;-84
2022/07/02 00:37:08;;;;;;;6.38;1.48;;;;;;;15.21;100.00;100791.31;6125312;23;20081;-84
2022/07/02 00:39:34;;;;;;;5.30;1.50;;;;;;;15.25;100.00;100783.97;6125818;23;20010;-84
2022/07/02 00:42:00;;;;;;;7.53;1.25;;;;;;;15.30;100.00;100780.94;6124809;23;20009;-84
2022/07/02 00:44:26;;;;;;;6.88;1.30;;;;;;;15.33;100.00;100786.00;6125161;23;20006;-83
2022/07/02 00:46:52;;;;;;;8.80;2.15;;;;;;;15.41;100.00;100784.38;6125056;23;20009;-83
2022/07/02 00:49:18;;;;;;;8.60;1.58;;;;;;;15.31;100.00;100780.81;6124990;23;20006;-83
2022/07/02 00:51:43;;;;;;;7.18;1.83;;;;;;;15.46;100.00;100782.22;6124806;23;20334;-84
2022/07/02 00:54:08;;;;;;;7.18;1.70;;;;;;;15.45;100.00;100780.53;6125141;23;20049;-84
2022/07/02 00:56:34;;;;;;;4.93;1.25;;;;;;;15.59;100.00;100778.53;6125133;23;20008;-83
2022/07/02 00:59:02;;;;;;;5.47;1.15;;;;;;;15.63;100.00;100783.44;6125086;23;20013;-83
2022/07/02 01:01:28;;;;;;;4.53;1.25;;;;;;;15.60;100.00;100783.72;6124902;23;20397;-83
2022/07/02 01:03:55;;;;;;;9.15;1.00;;;;;;;15.67;100.00;100779.56;6125132;23;20006;-84
2022/07/02 01:06:22;;;;;;;10.55;1.27;;;;;;;15.71;100.00;100774.88;6124794;23;20006;-83
2022/07/02 01:11:36;;;;;;;9.40;1.42;;;;;;;15.79;100.00;100774.25;6124940;23;20069;-83
2022/07/02 01:14:03;;;;;;;4.30;1.23;;;;;;;15.85;100.00;100773.75;6125055;23;20010;-83
2022/07/02 01:16:28;;;;;;;1.25;0.55;;;;;;;15.75;100.00;100781.59;6124937;23;19998;-85
2022/07/02 01:18:54;;;;;;;5.95;1.50;;;;;;;15.64;100.00;100771.91;6124690;23;20002;-85
2022/07/02 01:21:19;;;;;;;8.25;2.10;;;;;;;15.57;100.00;100772.53;6124816;23;20002;-84
2022/07/02 01:23:45;;;;;;;5.50;1.38;;;;;;;15.73;100.00;100756.25;6124790;23;20005;-85
2022/07/02 01:26:10;;;;;;;4.88;1.10;;;;;;;15.71;100.00;100769.56;6125173;23;20029;-84
2022/07/02 01:28:35;;;;;;;5.18;1.27;;;;;;;15.62;100.00;100759.75;6124942;23;20341;-85
2022/07/02 01:31:01;;;;;;;8.55;1.95;;;;;;;15.53;100.00;100765.81;6124792;23;20428;-84
2022/07/02 01:33:26;;;;;;;3.35;0.85;;;;;;;15.65;100.00;100759.50;6124815;23;20444;-83
2022/07/02 01:35:52;;;;;;;6.13;1.05;;;;;;;15.60;100.00;100753.75;6124811;23;20009;-85
2022/07/02 01:38:17;;;;;;;3.58;0.93;;;;;;;15.63;100.00;100745.56;6124847;23;20018;-84
2022/07/02 01:40:42;;;;;;;8.10;1.55;;;;;;;15.43;100.00;100756.00;6147770;23;20314;-85
2022/07/02 01:43:08;;;;;;;3.50;1.23;;;;;;;15.35;100.00;100755.78;6124885;23;20437;-85
2022/07/02 01:45:33;;;;;;;10.35;1.20;;;;;;;15.19;100.00;100747.44;6124870;23;20453;-85
2022/07/02 01:47:58;;;;;;;3.40;1.20;;;;;;;15.33;100.00;100746.31;6125072;23;20006;-85
2022/07/02 01:50:24;;;;;;;3.75;0.90;;;;;;;15.37;100.00;100740.63;6124703;23;20429;-85
2022/07/02 01:52:51;;;;;;;6.88;1.48;;;;;;;15.42;100.00;100742.88;6124738;23;20380;-84
2022/07/02 01:55:16;;;;;;;3.58;1.42;;;;;;;15.30;100.00;100734.16;6124930;23;20006;-84
2022/07/02 01:57:41;;;;;;;3.90;1.27;;;;;;;15.38;100.00;100734.38;6125014;23;20429;-84
2022/07/02 02:00:10;;;;;;;6.90;1.60;;;;;;;15.40;100.00;100737.75;6124639;23;20009;-84
2022/07/02 02:02:36;;;;;;;8.93;1.30;;;;;;;15.41;100.00;100731.47;6124727;23;20056;-84
2022/07/02 02:05:01;;;;;;;3.53;1.10;;;;;;;15.44;100.00;100733.88;6124665;23;20447;-84
2022/07/02 02:07:28;;;;;;;4.82;1.30;;;;;;;15.47;100.00;100720.38;6124559;23;20385;-84
2022/07/02 02:09:53;;;;;;;4.78;1.05;;;;;;;15.44;100.00;100725.06;6124748;23;20002;-84
2022/07/02 02:12:19;;;;;;;6.38;1.33;;;;;;;15.46;100.00;100713.41;6124487;23;20049;-85
2022/07/02 02:14:45;;;;;;;5.43;1.25;;;;;;;15.42;100.00;100714.63;6124635;23;19998;-85
2022/07/02 02:17:10;;;;;;;7.70;1.05;;;;;;;15.32;100.00;100718.16;6124772;23;20010;-85
2022/07/02 02:19:35;;;;;;;5.15;0.90;;;;;;;15.24;100.00;100718.78;6124529;23;20012;-85
2022/07/02 02:22:01;;;;;;;5.40;1.25;;;;;;;15.22;100.00;100718.91;6124492;23;20037;-84
2022/07/02 02:24:26;;;;;;;3.05;1.00;;;;;;;15.06;100.00;100716.69;6124641;23;19998;-84
2022/07/02 02:26:52;;;;;;;5.78;1.13;;;;;;;15.30;100.00;100717.44;6124304;23;20006;-84
2022/07/02 02:29:17;;;;;;;6.15;1.05;;;;;;;15.32;100.00;100720.81;6122336;23;20469;-84
2022/07/02 02:31:42;;;;;;;5.57;2.10;;;;;;;15.53;100.00;100713.72;6124384;23;20006;-84
2022/07/02 02:34:08;;;;;;;8.18;1.38;;;;;;;15.52;100.00;100721.78;6126174;23;20012;-84
2022/07/02 02:36:33;;;;;;;6.85;1.75;;;;;;;15.51;100.00;100714.84;6126284;23;20077;-84
2022/07/02 02:38:59;;;;;;;7.65;1.00;;;;;;;15.57;100.00;100720.44;6126699;23;20061;-84
2022/07/02 02:41:24;;;;;;;10.02;1.20;;;;;;;15.53;100.00;100720.84;6126253;23;20044;-85
2022/07/02 02:43:50;;;;;;;8.60;1.50;;;;;;;15.75;100.00;100719.88;6126399;23;20006;-84
2022/07/02 02:46:15;;;;;;;4.32;1.17;;;;;;;15.89;100.00;100721.38;6126509;23;20330;-84
2022/07/02 02:48:40;;;;;;;3.03;0.80;;;;;;;15.73;100.00;100713.88;6126289;23;20006;-84
2022/07/02 02:51:08;;;;;;;6.18;1.08;;;;;;;15.96;100.00;100720.72;6126166;23;20005;-84
2022/07/02 02:53:34;;;;;;;8.45;1.25;;;;;;;16.01;100.00;100717.66;6126556;23;20116;-84
2022/07/02 02:56:01;;;;;;;3.22;1.00;;;;;;;15.96;100.00;100719.88;6126127;23;20002;-85
2022/07/02 02:58:27;;;;;;;7.03;1.30;;;;;;;16.04;100.00;100718.25;6126277;23;20459;-85
2022/07/02 03:00:53;;;;;;;8.98;1.23;;;;;;;16.10;100.00;100708.94;6126239;23;20078;-85
2022/07/02 03:03:19;;;;;;;4.72;1.15;;;;;;;15.94;100.00;100704.13;6126096;23;20029;-84
2022/07/02 03:05:44;;;;;;;9.70;1.30;;;;;;;15.97;100.00;100706.47;6126244;23;20426;-84
2022/07/02 03:08:09;;;;;;;10.75;1.55;;;;;;;15.88;100.00;100698.50;6125809;23;20010;-85
2022/07/02 03:10:35;;;;;;;9.77;1.50;;;;;;;16.09;100.00;100699.28;6126422;23;20002;-85
2022/07/02 03:13:00;;;;;;;4.97;1.25;;;;;;;16.25;100.00;100699.66;6124423;23;20006;-84
2022/07/02 03:15:26;;;;;;;10.85;1.50;;;;;;;16.22;100.00;100699.09;6126192;23;20451;-84
2022/07/02 03:17:51;;;;;;;8.18;1.40;;;;;;;16.27;100.00;100696.84;6126012;23;20325;-84
2022/07/02 03:20:16;;;;;;;4.53;1.52;;;;;;;16.44;100.00;100698.88;6124469;23;20061;-84
2022/07/02 03:22:42;;;;;;;8.52;1.88;;;;;;;16.30;100.00;100701.91;6148958;23;20081;-85
2022/07/02 03:25:08;;;;;;;7.15;1.35;;;;;;;16.68;100.00;100704.78;6126029;23;20010;-84
2022/07/02 03:27:34;;;;;;;5.45;1.45;;;;;;;16.65;100.00;100690.84;6125915;23;20026;-84
2022/07/02 03:29:59;;;;;;;4.95;1.20;;;;;;;16.64;100.00;100707.69;6125894;23;20072;-85
2022/07/02 03:32:29;;;;;;;5.85;1.25;;;;;;;16.73;100.00;100699.94;6125741;23;20002;-84
2022/07/02 03:34:56;;;;;;;7.28;1.70;;;;;;;16.97;100.00;100707.53;6125873;23;20005;-85
2022/07/02 03:37:25;;;;;;;6.90;1.17;;;;;;;17.08;100.00;100702.09;6125815;23;20114;-84
2022/07/02 03:39:51;;;;;;;6.63;1.60;;;;;;;17.16;100.00;100704.88;6126028;23;20372;-84
2022/07/02 03:42:16;;;;;;;5.78;1.33;;;;;;;17.38;100.00;100697.59;6125818;23;20081;-84
2022/07/02 03:44:41;;;;;;;4.72;1.17;;;;;;;17.27;100.00;100711.84;6125587;23;20318;-84
2022/07/02 03:47:07;;;;;;;4.60;2.13;;;;;;;17.38;100.00;100709.06;6125807;23;20480;-84
2022/07/02 03:49:32;;;;;;;6.90;1.40;;;;;;;17.41;100.00;100722.03;6148805;23;20341;-85
2022/07/02 03:51:58;;;;;;;4.32;1.10;;;;;;;17.16;100.00;100714.63;6123971;23;20032;-85
2022/07/02 03:54:23;;;;;;;6.22;1.38;;;;;;;17.44;100.00;100703.19;6125939;23;20029;-85
2022/07/02 03:56:48;;;;;;;3.25;1.10;;;;;;;17.23;100.00;100700.66;6125902;23;20048;-85
2022/07/02 03:59:14;;;;;;;3.67;1.40;;;;;;;17.38;100.00;100702.91;6125523;23;20006;-85
2022/07/02 04:01:39;;;;;;;5.72;1.52;;;;;;;17.62;100.00;100702.47;6125434;23;20009;-85
2022/07/02 04:04:04;;;;;;;7.00;1.42;;;;;;;17.69;100.00;100700.88;6125702;23;20042;-85
2022/07/02 04:06:30;;;;;;;4.05;0.80;;;;;;;17.65;100.00;100707.47;6125520;23;20077;-85
2022/07/02 04:08:55;;;;;;;9.32;1.27;;;;;;;17.48;100.00;100702.91;6125477;23;20010;-84
2022/07/02 04:11:20;;;;;;;3.92;0.80;;;;;;;17.62;100.00;100705.13;6125416;23;20002;-85
2022/07/02 04:13:46;;;;;;;9.63;1.33;;;;;;;17.79;100.00;100704.38;6125680;23;20421;-85
2022/07/02 04:16:11;;;;;;;5.40;1.08;;;;;;;17.54;100.00;100705.00;6125482;23;20430;-84
2022/07/02 04:18:36;;;;;;;9.70;1.63;;;;;;;17.69;100.00;100706.19;6125477;23;20006;-85
2022/07/02 04:21:02;;;;;;;10.27;1.38;;;;;;;17.75;100.00;100702.13;6125457;23;20090;-83
2022/07/02 04:23:27;;;;;;;5.38;1.05;;;;;;;17.78;100.00;100704.50;6125126;23;20480;-85
2022/07/02 04:25:53;;;;;;;7.85;1.30;;;;;;;17.73;100.00;100712.06;6123637;23;20226;-85
2022/07/02 04:28:18;;;;;;;5.07;1.63;;;;;;;17.84;100.00;100702.13;6125342;23;20010;-85
2022/07/02 04:30:43;;;;;;;6.82;1.33;;;;;;;17.64;100.00;100713.78;6125448;23;20381;-84
2022/07/02 04:33:09;;;;;;;5.95;1.35;;;;;;;17.57;100.00;100702.88;6125318;23;20200;-85
2022/07/02 04:35:34;;;;;;;4.20;1.10;;;;;;;17.68;100.00;100711.69;6125115;23;20029;-85
2022/07/02 04:38:00;;;;;;;5.15;1.42;;;;;;;17.73;100.00;100699.66;6125259;23;20025;-85
2022/07/02 04:40:25;;;;;;;7.32;1.55;;;;;;;17.68;100.00;100703.72;6125226;23;20480;-85
2022/07/02 04:42:50;;;;;;;6.50;1.40;;;;;;;17.82;100.00;100704.06;6125201;23;20002;-85
2022/07/02 04:45:16;;;;;;;6.53;1.08;;;;;;;18.02;100.00;100699.56;6123575;23;20072;-85
2022/07/02 04:47:41;;;;;;;11.43;1.45;;;;;;;17.56;100.00;100700.38;6125476;23;20337;-85
2022/07/02 04:50:07;;;;;;;11.48;1.83;;;;;;;17.47;100.00;100694.09;6125305;23;20009;-85
2022/07/02 04:52:32;;;;;;;7.45;1.92;;;;;;;17.31;100.00;100692.00;6125087;23;20081;-85
2022/07/02 04:54:58;;;;;;;8.50;1.60;;;;;;;17.83;100.00;100696.94;6124540;23;20005;-85
2022/07/02 04:57:23;;;;;;;6.47;1.30;;;;;;;17.67;100.00;100694.06;6125011;23;20006;-85
2022/07/02 04:59:48;;;;;;;8.18;1.85;;;;;;;17.51;100.00;100692.00;6125300;23;20033;-85
2022/07/02 05:02:14;;;;;;;6.82;1.30;;;;;;;17.82;100.00;100684.66;6123261;23;20016;-84
2022/07/02 05:04:39;;;;;;;12.07;1.30;;;;;;;17.84;100.00;100682.72;6125094;23;20006;-85
2022/07/02 05:07:05;;;;;;;6.60;1.00;;;;;;;17.82;100.00;100682.81;6124835;23;20016;-85
2022/07/02 05:09:30;;;;;;;9.25;1.52;;;;;;;17.79;100.00;100691.09;6124961;23;20021;-85
2022/07/02 05:11:56;;;;;;;7.80;1.35;;;;;;;17.94;100.00;100688.00;6125175;23;20060;-85
2022/07/02 05:14:21;;;;;;;12.50;1.88;;;;;;;18.14;100.00;100683.44;6125082;23;20451;-85
2022/07/02 05:16:46;;;;;;;5.78;1.75;;;;;;;17.97;100.00;100690.34;6124837;23;20010;-84
2022/07/02 05:19:12;;;;;;;5.57;1.40;;;;;;;17.80;100.00;100686.63;6124970;23;20006;-85
2022/07/02 05:21:37;;;;;;;9.18;1.60;;;;;;;17.90;100.00;100687.44;6124888;23;20009;-85
2022/07/02 05:24:03;;;;;;;6.15;1.52;;;;;;;18.28;100.00;100690.09;6124892;23;20030;-85
2022/07/02 05:26:29;;;;;;;10.00;1.13;;;;;;;18.45;100.00;100691.16;6123147;23;20010;-85
2022/07/02 05:28:54;;;;;;;6.97;1.23;;;;;;;18.19;100.00;100687.34;6124942;23;20417;-84
2022/07/02 05:31:20;;;;;;;6.28;1.30;;;;;;;18.62;100.00;100693.84;6124952;23;20002;-85
2022/07/02 05:33:45;;;;;;;7.28;1.38;;;;;;;18.22;100.00;100686.19;6124821;23;20006;-85
2022/07/02 05:36:10;;;;;;;8.43;1.17;;;;;;;18.35;100.00;100693.84;6123804;23;20013;-84
2022/07/02 05:38:36;;;;;;;7.82;1.83;;;;;;;18.18;100.00;100690.97;6124574;23;20002;-84
2022/07/02 05:41:01;;;;;;;8.00;1.30;;;;;;;18.62;100.00;100691.19;6124788;23;20136;-84
2022/07/02 05:43:26;;;;;;;6.70;1.75;;;;;;;18.91;100.00;100687.50;6125013;23;20002;-85
2022/07/02 05:45:52;;;;;;;8.55;1.75;;;;;;;18.66;100.00;100689.06;6124370;23;20053;-85
2022/07/02 05:48:17;;;;;;;7.07;1.40;;;;;;;19.01;100.00;100688.25;6124449;23;20009;-85
2022/07/02 05:50:43;;;;;;;8.25;2.40;;;;;;;18.64;100.00;100683.03;6123104;23;20010;-85
2022/07/02 05:53:08;;;;;;;13.85;1.55;;;;;;;18.70;100.00;100681.59;6124538;23;20337;-85
2022/07/02 05:55:33;;;;;;;15.05;1.73;;;;;;;18.98;100.00;100677.91;6124742;23;20006;-85
2022/07/02 05:57:59;;;;;;;5.75;1.25;;;;;;;18.86;100.00;100680.94;6124652;23;20078;-84
2022/07/02 06:00:24;;;;;;;4.30;1.27;;;;;;;19.19;100.00;100688.25;6124809;23;20380;-84
2022/07/02 06:02:49;;;;;;;6.90;1.58;;;;;;;19.22;100.00;100684.44;6124387;23;20002;-84
2022/07/02 06:07:59;;;;;;;9.40;1.50;;;;;;;19.91;100.00;100693.44;6125978;23;20024;-85
2022/07/02 06:10:24;;;;;;;9.90;1.50;;;;;;;19.37;100.00;100698.88;6126589;23;20037;-84
2022/07/02 06:12:52;;;;;;;9.88;1.70;;;;;;;19.72;100.00;100710.47;6126408;23;20322;-84
2022/07/02 06:15:18;;;;;;;7.93;1.45;;;;;;;19.41;100.00;100694.06;6126595;23;20006;-84
2022/07/02 06:17:44;;;;;;;10.63;1.90;;;;;;;19.31;100.00;100696.00;6124653;23;20456;-84
2022/07/02 06:20:11;;;;;;;10.70;1.50;;;;;;;19.56;100.00;100700.50;6124653;23;20002;-84
2022/07/02 06:22:36;;;;;;;7.25;1.42;;;;;;;19.43;100.00;100705.41;6126592;23;20373;-84
2022/07/02 06:25:02;;;;;;;7.60;1.98;;;;;;;19.64;100.00;100701.56;6126453;23;20006;-84
2022/07/02 06:27:30;;;;;;;8.43;1.52;;;;;;;19.46;100.00;100715.75;6124053;23;19998;-84
2022/07/02 06:29:56;;;;;;;11.40;1.42;;;;;;;19.22;100.00;100711.06;6126041;23;20002;-84
2022/07/02 06:32:21;;;;;;;10.05;2.90;;;;;;;19.64;100.00;100713.06;6125524;23;20165;-84
2022/07/02 06:34:47;;;;;;;9.93;1.17;;;;;;;19.69;100.00;100704.59;6126306;23;20028;-83
2022/07/02 06:37:12;;;;;;;9.40;1.83;;;;;;;19.70;100.00;100700.94;6125742;23;20341;-83
2022/07/02 06:39:37;;;;;;;8.18;1.40;;;;;;;19.49;100.00;100704.81;6125964;23;20359;-84
2022/07/02 06:42:26;;;;;;;7.25;1.10;;;;;;;19.71;100.00;100706.16;6125064;23;20441;-85
2022/07/02 06:44:54;;;;;;;10.40;2.38;;;;;;;20.01;99.03;100714.66;6126022;23;20008;-84
2022/07/02 06:47:21;;;;;;;6.95;1.15;;;;;;;19.96;99.32;100707.16;6125684;23;20056;-83
2022/07/02 06:49:47;;;;;;;4.32;1.00;;;;;;;20.07;99.00;100703.34;6125765;23;20077;-84
2022/07/02 06:52:13;;;;;;;11.02;1.58;;;;;;;19.85;99.54;100701.25;6123130;23;20219;-84
2022/07/02 06:54:39;;;;;;;10.32;1.10;;;;;;;19.85;99.54;100706.56;6125713;23;20006;-85
2022/07/02 06:57:05;;;;;;;7.55;2.55;;;;;;;20.12;98.59;100695.72;6125914;23;20430;-84
2022/07/02 06:59:31;;;;;;;6.60;1.10;;;;;;;19.59;100.00;100702.06;6126179;23;20002;-84
2022/07/02 07:01:56;;;;;;;10.77;1.45;;;;;;;20.25;98.24;100691.78;6126343;23;20017;-84
2022/07/02 07:04:22;;;;;;;8.73;1.48;;;;;;;20.23;97.74;100691.94;6126117;23;20404;-84
2022/07/02 07:09:19;;;;;;;;;;;;;;;20.48;95.48;100686.69;6127784;23;20014;-84
2022/07/02 07:11:44;;;;;;;6.27;1.17;;;;;;;20.54;95.12;100691.38;6126148;23;19919;-84
2022/07/02 07:14:10;;;;;;;7.85;1.67;;;;;;;20.81;94.29;100698.31;6125945;23;20224;-84
2022/07/02 07:16:35;;;;;;;8.25;1.48;;;;;;;20.66;93.91;100687.44;6125858;23;20025;-84
2022/07/02 07:19:09;;;;;;;6.15;1.60;;;;;;;21.37;90.34;100688.66;6126501;23;20005;-84
2022/07/02 07:21:37;;;;;;;5.97;1.50;;;;;;;20.79;92.07;100674.47;6125621;23;20033;-84
2022/07/02 07:24:04;;;;;;;10.25;1.63;;;;;;;20.62;92.72;100682.56;6126008;23;20044;-84
2022/07/02 07:26:30;;;;;;;8.05;1.70;;;;;;;21.13;90.69;100684.19;6126031;23;20477;-83
2022/07/02 07:28:55;;;;;;;5.63;1.40;;;;;;;20.41;94.18;100691.84;6125864;23;20092;-83
2022/07/02 07:31:20;;;;;;;7.60;1.45;;;;;;;20.77;93.40;100689.81;6126139;23;20009;-83
2022/07/02 07:33:50;;;;;;;6.57;1.25;;;;;;;20.44;95.09;100688.00;6125683;23;20053;-83
2022/07/02 07:36:17;;;;;;;4.97;1.30;;;;;;;20.41;94.06;100698.00;6148831;23;20006;-83
2022/07/02 07:38:42;;;;;;;7.00;1.48;;;;;;;20.51;93.50;100697.88;6125676;23;20006;-83
2022/07/02 07:41:08;;;;;;;9.20;1.00;;;;;;;20.95;93.04;100694.16;6125972;23;20004;-83
2022/07/02 07:43:34;;;;;;;7.18;1.30;;;;;;;20.97;93.18;100692.16;6125665;23;20053;-83
2022/07/02 07:45:59;;;;;;;6.38;1.17;;;;;;;20.87;92.24;100692.31;6125763;23;20048;-83
2022/07/02 07:48:25;;;;;;;4.30;1.00;;;;;;;21.23;90.35;100697.38;6125564;23;20010;-84
2022/07/02 07:50:51;;;;;;;5.55;1.30;;;;;;;21.44;89.21;100701.38;6125834;23;20034;-84
2022/07/02 07:53:16;;;;;;;4.25;1.02;;;;;;;21.05;91.46;100697.53;6125783;23;20002;-84
2022/07/02 07:55:42;;;;;;;3.97;1.00;;;;;;;21.32;89.31;100701.69;6125618;23;20453;-83
2022/07/02 07:58:07;;;;;;;10.63;2.40;;;;;;;20.93;91.19;100705.00;6123560;23;20444;-83
2022/07/02 08:00:32;;;;;;;9.13;1.65;;;;;;;20.60;93.39;100702.25;6125502;23;20002;-84
2022/07/02 08:02:58;;;;;;;7.47;1.65;;;;;;;20.74;93.66;100702.63;6124976;23;20006;-84
2022/07/02 08:05:24;;;;;;;8.57;1.73;;;;;;;20.98;91.19;100705.34;6125342;23;20010;-84
2022/07/02 08:07:49;;;;;;;5.82;1.08;;;;;;;20.72;93.20;100712.66;6124964;23;20010;-84
2022/07/02 08:10:16;;;;;;;6.43;1.45;;;;;;;20.99;92.16;100708.84;6125466;23;20006;-84
2022/07/02 08:12:41;;;;;;;5.00;1.42;;;;;;;20.97;90.31;100703.69;6124494;23;20033;-83
2022/07/02 08:15:08;;;;;;;8.30;1.50;;;;;;;20.23;94.73;100712.44;6123528;23;20005;-84
2022/07/02 08:17:34;;;;;;;14.82;2.25;;;;;;;20.47;93.71;100707.19;6124938;23;20009;-84
2022/07/02 08:19:59;;;;;;;8.20;1.25;;;;;;;20.48;94.21;100713.34;6125218;23;20347;-83
2022/07/02 08:22:25;;;;;;;13.63;2.22;;;;;;;20.86;92.06;100711.16;6124954;23;20025;-84
2022/07/02 08:24:50;;;;;;;7.72;1.40;;;;;;;21.66;87.39;100714.03;6124874;23;20034;-84
2022/07/02 08:27:16;;;;;;;6.47;1.25;;;;;;;21.86;85.91;100711.00;6124146;23;20001;-84
2022/07/02 08:29:41;;;;;;;6.68;1.40;;;;;;;20.98;87.90;100726.69;6125000;23;20073;-84
2022/07/02 08:32:07;;;;;;;11.77;1.88;;;;;;;20.70;88.81;100718.13;6124577;23;20040;-83
2022/07/02 08:34:33;;;;;;;9.75;2.35;;;;;;;20.36;89.47;100710.16;6125226;23;20002;-83
2022/07/02 08:36:59;;;;;;;5.82;1.17;;;;;;;20.40;89.91;100722.19;6121732;23;20038;-83
2022/07/02 08:39:25;;;;;;;6.07;1.55;;;;;;;20.40;89.71;100719.50;6118913;23;20006;-83
2022/07/02 08:41:52;;;;;;;7.15;1.60;;;;;;;20.58;89.06;100716.75;6116960;23;20425;-84
2022/07/02 08:44:21;;;;;;;9.32;1.33;;;;;;;20.43;89.83;100721.84;6118282;23;20005;-85
2022/07/02 08:46:47;;;;;;;6.85;1.20;;;;;;;20.69;88.39;100716.44;6118761;23;20495;-84
2022/07/02 08:49:17;;;;;;;4.28;1.08;;;;;;;20.78;87.60;100711.97;6118424;23;20009;-83
2022/07/02 08:51:44;;;;;;;6.13;1.00;;;;;;;20.52;87.50;100710.22;6118516;23;20105;-84
2022/07/02 08:54:10;;;;;;;4.18;0.80;;;;;;;20.06;91.14;100717.66;6118671;23;20006;-84
2022/07/02 08:56:35;;;;;;;7.57;1.52;;;;;;;20.20;89.61;100722.44;6143183;23;20005;-83
2022/07/02 08:59:01;;;;;;;4.00;1.30;;;;;;;20.13;89.58;100715.22;6123630;23;20034;-84
2022/07/02 09:01:27;;;;;;;8.60;1.00;;;;;;;19.80;91.64;100715.84;6124835;23;20365;-84
2022/07/02 09:03:54;;;;;;;4.85;0.98;;;;;;;19.65;93.21;100722.72;6147603;23;20002;-83
2022/07/02 09:06:21;;;;;;;7.05;1.38;;;;;;;20.15;91.19;100719.38;6124690;23;20122;-82
2022/07/02 09:08:47;;;;;;;3.72;0.75;;;;;;;19.77;93.24;100715.34;6124762;23;20343;-84
2022/07/02 09:11:13;;;;;;;4.88;0.88;;;;;;;20.50;90.92;100712.22;6124391;23;20013;-83
2022/07/02 09:13:39;;;;;;;4.20;1.33;;;;;;;20.83;88.50;100714.97;6123944;23;20002;-85
2022/07/02 09:16:06;;;;;;;6.13;1.15;;;;;;;20.94;87.11;100716.53;6124636;23;20009;-85
2022/07/02 09:18:31;;;;;;;6.97;1.13;;;;;;;20.41;89.16;100713.16;6124418;23;20016;-85
2022/07/02 09:20:57;;;;;;;4.82;1.17;;;;;;;20.24;90.06;100706.09;6124205;23;20038;-84
2022/07/02 09:23:23;;;;;;;3.75;0.73;;;;;;;20.25;90.38;100713.94;6122917;23;20002;-84
2022/07/02 09:25:51;;;;;;;5.10;0.82;;;;;;;20.47;88.76;100707.19;6124398;23;20002;-85
2022/07/02 09:28:18;;;;;;;6.25;1.10;;;;;;;20.78;87.27;100710.16;6123849;23;20341;-86
2022/07/02 09:30:43;;;;;;;7.10;1.15;;;;;;;20.71;87.52;100713.63;6122835;23;20357;-83
2022/07/02 09:33:29;;;;;;;3.75;1.17;;;;;;;20.44;88.92;100710.19;6125284;23;19998;-85
2022/07/02 09:35:55;;;;;;;1.95;0.60;;;;;;;20.88;86.50;100699.31;6124021;23;20006;-84
2022/07/02 09:38:20;;;;;;;9.07;1.10;;;;;;;20.11;90.02;100718.03;6124443;23;20076;-85
2022/07/02 09:40:54;;;;;;;4.18;0.77;;;;;;;20.81;88.49;100703.63;6124236;23;20361;-85
2022/07/02 09:43:31;;;;;;;3.58;0.95;;;;;;;21.03;86.31;100702.19;6123480;23;20006;-85
2022/07/02 09:45:59;;;;;;;3.63;0.65;;;;;;;20.79;86.82;100708.31;6123917;23;20006;-83
2022/07/02 09:48:24;;;;;;;7.20;1.13;;;;;;;21.15;86.20;100706.19;6123741;23;20006;-84
2022/07/02 09:50:52;;;;;;;2.55;0.60;;;;;;;20.97;87.83;100710.84;6123603;23;20057;-85
2022/07/02 09:53:17;;;;;;;4.70;0.77;;;;;;;21.19;87.02;100704.88;6123788;23;20240;-84
2022/07/02 09:55:50;;;;;;;4.72;0.80;;;;;;;20.65;90.61;100704.44;6123780;23;20573;-84
2022/07/02 09:58:23;;;;;;;2.70;0.70;;;;;;;20.90;91.20;100713.34;6123285;23;20448;-84
2022/07/02 10:00:49;;;;;;;5.55;1.00;;;;;;;20.74;92.90;100716.81;6124248;23;20001;-84
2022/07/02 10:03:14;;;;;;;4.63;1.27;;;;;;;20.35;95.06;100713.81;6123871;23;20006;-84
2022/07/02 10:05:41;;;;;;;5.40;1.20;;;;;;;20.49;97.22;100720.38;6123891;23;20004;-83
2022/07/02 10:08:07;;;;;;;6.65;1.02;;;;;;;20.28;99.86;100720.78;6124081;23;20096;-83
2022/07/02 10:10:38;;;;;;;4.20;0.80;;;;;;;19.77;100.00;100726.84;6124272;23;20041;-83
2022/07/02 10:13:11;;;;;;;6.10;1.13;;;;;;;20.20;100.00;100726.91;6123266;23;20369;-83
2022/07/02 10:15:50;;;;;;;5.35;1.60;;;;;;;20.52;100.00;100715.56;6125121;23;20002;-84
2022/07/02 10:18:17;;;;;;;6.93;1.23;;;;;;;20.41;100.00;100714.00;6123640;23;20006;-84
2022/07/02 10:20:43;;;;;;;3.55;1.08;;;;;;;20.01;100.00;100720.00;6124155;23;20002;-84
2022/07/02 10:23:08;;;;;;;2.25;0.80;;;;;;;20.17;100.00;100712.06;6123864;23;20311;-85
2022/07/02 10:25:34;;;;;;;6.55;1.35;;;;;;;19.81;100.00;100722.88;6124358;23;20009;-85
2022/07/02 10:28:01;;;;;;;4.75;1.35;;;;;;;19.52;100.00;100723.13;6123465;23;20006;-84
2022/07/02 10:30:32;;;;;;;4.07;1.48;;;;;;;19.78;100.00;100717.00;6124474;23;20013;-85
2022/07/02 10:33:20;;;;;;;6.33;1.07;;;;;;;20.02;100.00;100721.66;6123772;23;19997;-85
2022/07/02 10:35:48;;;;;;;5.20;1.50;;;;;;;19.68;100.00;100716.25;6124350;23;20009;-84
2022/07/02 10:38:14;;;;;;;2.95;1.40;;;;;;;19.51;100.00;100723.28;6124112;23;20069;-83
2022/07/02 10:40:49;;;;;;;6.20;1.58;;;;;;;20.04;100.00;100717.00;6124612;23;20504;-84
2022/07/02 10:43:18;;;;;;;5.80;1.75;;;;;;;19.64;100.00;100718.38;6123568;23;20013;-83
2022/07/02 10:45:44;;;;;;;5.63;1.55;;;;;;;19.95;100.00;100715.28;6124102;23;20106;-83
2022/07/02 10:48:11;;;;;;;6.55;2.05;;;;;;;20.11;100.00;100717.22;6124335;23;20011;-83
2022/07/02 10:50:38;;;;;;;4.95;1.70;;;;;;;19.79;100.00;100718.69;6124233;23;20380;-84
2022/07/02 10:53:09;;;;;;;7.70;2.35;;;;;;;19.96;100.00;100722.28;6123983;23;20025;-83
2022/07/02 10:55:35;;;;;;;6.20;1.90;;;;;;;19.59;100.00;100710.03;6126016;23;20009;-83
2022/07/02 10:58:03;;;;;;;4.40;1.90;;;;;;;19.95;100.00;100718.78;6125143;23;20002;-84
2022/07/02 11:00:30;;;;;;;9.90;2.40;;;;;;;19.83;100.00;100716.53;6125777;23;20005;-83
2022/07/02 11:02:57;;;;;;;10.85;2.20;;;;;;;19.88;100.00;100716.91;6123809;23;20085;-84
2022/07/02 11:05:23;;;;;;;6.82;2.50;;;;;;;20.04;100.00;100716.16;6126260;23;20002;-84
2022/07/02 11:07:48;;;;;;;5.45;2.35;;;;;;;20.23;100.00;100720.44;6125277;23;20108;-84
2022/07/02 11:10:13;;;;;;;2.15;0.93;;;;;;;20.02;100.00;100726.97;6123000;23;20086;-84
2022/07/02 11:13:02;;;;;;;0.28;0.13;;;;;;;19.22;100.00;100732.38;6125643;23;20025;-83
2022/07/02 11:15:34;;;;;;;0.63;0.10;;;;;;;18.29;100.00;100729.00;6125935;23;20009;-84
2022/07/02 11:18:05;;;;;;;0.22;0.10;;;;;;;18.49;100.00;100735.88;6125626;23;20006;-83
2022/07/02 11:20:34;;;;;;;8.68;0.30;;;;;;;18.09;100.00;100744.16;6126220;23;20041;-83
2022/07/02 11:23:00;;;;;;;0.82;0.20;;;;;;;18.66;100.00;100742.25;6125971;23;20465;-83
2022/07/02 11:25:29;;;;;;;1.65;0.20;;;;;;;18.49;100.00;100733.22;6125414;23;20002;-83